createdAt,value
2018-12-09T00:00:39.257Z,9.77
2018-12-09T00:06:34.288Z,9.99
2018-12-09T00:12:29.260Z,9.29
2018-12-09T00:18:24.264Z,10.01
2018-12-09T00:24:19.281Z,10.31
2018-12-09T00:30:14.290Z,9.76
2018-12-09T00:36:09.284Z,8.97
2018-12-09T00:42:04.321Z,9.18
2018-12-09T00:47:59.276Z,8.97
2018-12-09T00:53:54.319Z,7.32
2018-12-09T00:59:49.290Z,7.45
2018-12-09T01:05:44.289Z,7.76
2018-12-09T01:11:39.315Z,8.67
2018-12-09T01:17:34.292Z,8.43
2018-12-09T01:23:29.295Z,9.11
2018-12-09T01:29:24.296Z,8.26
2018-12-09T01:35:19.330Z,8.15
2018-12-09T01:41:14.327Z,9.3
2018-12-09T01:47:09.307Z,9.23
2018-12-09T01:53:04.302Z,8.86
2018-12-09T01:58:59.334Z,8.03
2018-12-09T02:04:54.314Z,8.38
2018-12-09T02:10:49.309Z,9.8
2018-12-09T02:16:44.337Z,9.73
2018-12-09T02:22:39.352Z,9.76
2018-12-09T02:28:34.344Z,9.5
2018-12-09T02:34:29.356Z,9.88
2018-12-09T02:40:24.340Z,10.29
2018-12-09T02:46:19.351Z,9.89
2018-12-09T02:52:14.369Z,9.64
2018-12-09T02:58:09.346Z,9.85
2018-12-09T03:04:04.379Z,8.64
2018-12-09T03:09:59.362Z,9.43
2018-12-09T03:15:54.379Z,6.66
2018-12-09T03:21:49.375Z,5.61
2018-12-09T03:27:44.380Z,8.54
2018-12-09T03:33:39.385Z,8.31
2018-12-09T03:39:34.364Z,7.92
2018-12-09T03:45:29.430Z,7.68
2018-12-09T03:51:24.435Z,8.02
2018-12-09T03:57:19.405Z,7.76
2018-12-09T04:03:14.437Z,6.88
2018-12-09T04:09:09.559Z,7.19
2018-12-09T04:15:04.420Z,6.13
2018-12-09T04:20:59.399Z,5.88
2018-12-09T04:26:54.394Z,5.77
2018-12-09T04:32:49.390Z,6.27
2018-12-09T04:38:44.406Z,6.07
2018-12-09T04:44:39.400Z,5.83
2018-12-09T04:50:34.426Z,5.65
2018-12-09T04:56:29.430Z,6.21
2018-12-09T05:02:24.424Z,5.11
2018-12-09T05:08:19.414Z,5.44
2018-12-09T05:14:14.435Z,5.27
2018-12-09T05:20:09.465Z,6.26
2018-12-09T05:26:04.431Z,5.6
2018-12-09T05:31:59.448Z,6.1
2018-12-09T05:37:54.441Z,6.13
2018-12-09T05:43:49.455Z,5.88
2018-12-09T05:49:44.448Z,6.27
2018-12-09T05:55:39.461Z,5.11
2018-12-09T06:01:34.444Z,5.06
2018-12-09T06:07:29.446Z,5.85
2018-12-09T06:13:24.485Z,6.32
2018-12-09T06:19:19.460Z,6.8
2018-12-09T06:25:14.532Z,5.53
2018-12-09T06:31:09.485Z,4.87
2018-12-09T06:37:04.444Z,5.37
2018-12-09T06:42:59.461Z,4.67
2018-12-09T06:48:54.470Z,4.79
2018-12-09T06:54:49.478Z,5.68
2018-12-09T07:00:44.503Z,5.02
2018-12-09T07:06:39.463Z,5.25
2018-12-09T07:12:34.508Z,5.07
2018-12-09T07:18:29.474Z,5.21
2018-12-09T07:24:24.512Z,5.43
2018-12-09T07:30:19.483Z,6.17
2018-12-09T07:36:14.498Z,5.97
2018-12-09T07:42:09.510Z,5.59
2018-12-09T07:48:04.494Z,6.54
2018-12-09T07:53:59.499Z,6.42
2018-12-09T07:59:54.484Z,5.29
2018-12-09T08:05:49.531Z,5.21
2018-12-09T08:11:44.499Z,4.77
2018-12-09T08:17:39.539Z,5.81
2018-12-09T08:23:34.507Z,5.34
2018-12-09T08:29:29.547Z,5.69
2018-12-09T08:35:24.562Z,6.18
2018-12-09T08:41:19.520Z,4.47
2018-12-09T08:47:14.561Z,3.55
2018-12-09T08:53:09.541Z,3.23
2018-12-09T08:59:05.700Z,3.57
2018-12-09T09:04:59.525Z,3.6
2018-12-09T09:10:54.538Z,3.05
2018-12-09T09:16:49.597Z,3.57
2018-12-09T09:22:44.607Z,3.45
2018-12-09T09:28:39.544Z,3.53
2018-12-09T09:34:34.560Z,2.6
2018-12-09T09:40:29.540Z,3.95
2018-12-09T09:46:24.558Z,3.89
2018-12-09T09:52:19.561Z,3.28
2018-12-09T09:58:14.552Z,3.56
2018-12-09T10:04:09.576Z,2.76
2018-12-09T10:10:04.559Z,3.97
2018-12-09T10:15:59.615Z,4.44
2018-12-09T10:21:54.608Z,3.46
2018-12-09T10:27:49.579Z,3.38
2018-12-09T10:33:44.634Z,3.3
2018-12-09T10:39:39.632Z,4.06
2018-12-09T10:45:34.620Z,2.49
2018-12-09T10:51:29.655Z,4.39
2018-12-09T10:57:24.640Z,3.72
2018-12-09T11:03:19.666Z,3.48
2018-12-09T11:09:14.615Z,3.48
2018-12-09T11:15:09.619Z,3.08
2018-12-09T11:21:04.631Z,3.83
2018-12-09T11:26:59.630Z,3.52
2018-12-09T11:32:54.651Z,3.01
2018-12-09T11:38:49.653Z,2.91
2018-12-09T11:44:44.662Z,3.73
2018-12-09T11:50:39.643Z,2.98
2018-12-09T11:56:34.666Z,3.74
2018-12-09T12:02:29.685Z,3.19
2018-12-09T12:08:24.689Z,2.43
2018-12-09T12:14:19.667Z,2.43
2018-12-09T12:20:14.689Z,3.44
2018-12-09T12:26:09.658Z,2.62
2018-12-09T12:32:04.672Z,2.76
2018-12-09T12:37:59.676Z,3.06
2018-12-09T12:43:54.666Z,2.83
2018-12-09T12:49:49.670Z,3.32
2018-12-09T12:55:44.748Z,3.19
2018-12-09T13:01:39.710Z,2.98
2018-12-09T13:07:34.695Z,2.93
2018-12-09T13:13:29.758Z,3.44
2018-12-09T13:19:24.686Z,3.21
2018-12-09T13:25:19.718Z,3.14
2018-12-09T13:31:14.725Z,3.63
2018-12-09T13:37:09.725Z,3.27
2018-12-09T13:43:04.718Z,3.53
2018-12-09T13:48:59.719Z,3.37
2018-12-09T13:54:54.780Z,3.89
2018-12-09T14:00:49.712Z,3.63
2018-12-09T14:06:44.722Z,3.95
2018-12-09T14:12:39.730Z,3.75
2018-12-09T14:18:34.797Z,3.59
2018-12-09T14:24:29.767Z,3.45
2018-12-09T14:30:24.760Z,3.54
2018-12-09T14:36:19.742Z,4.12
2018-12-09T14:42:14.720Z,4.23
2018-12-09T14:48:09.759Z,3.65
2018-12-09T14:54:04.762Z,4.36
2018-12-09T14:59:59.750Z,4.3
2018-12-09T15:05:54.735Z,5.67
2018-12-09T15:11:49.763Z,3.6
2018-12-09T15:17:44.821Z,4.08
2018-12-09T15:23:39.770Z,3.19
2018-12-09T15:29:34.861Z,4.04
2018-12-09T15:35:29.838Z,4.43
2018-12-09T15:41:24.769Z,4.95
2018-12-09T15:47:19.768Z,4.86
2018-12-09T15:53:14.779Z,4.06
2018-12-09T15:59:09.819Z,4.81
2018-12-09T16:05:04.783Z,4.38
2018-12-09T16:10:59.813Z,5.1
2018-12-09T16:16:54.809Z,4.51
2018-12-09T16:22:49.808Z,3.72
2018-12-09T16:28:44.798Z,5.26
2018-12-09T16:34:39.835Z,7.32
2018-12-09T16:40:34.816Z,7.51
2018-12-09T16:46:29.808Z,8.63
2018-12-09T16:52:24.799Z,8.91
2018-12-09T16:58:19.824Z,13.79
2018-12-09T17:04:14.834Z,10.17
2018-12-09T17:10:09.859Z,10.55
2018-12-09T17:16:04.835Z,9.85
2018-12-09T17:21:59.833Z,9.6
2018-12-09T17:27:54.843Z,9.32
2018-12-09T17:33:49.864Z,10.3
2018-12-09T17:39:44.847Z,9.89
2018-12-09T17:45:39.849Z,8.9
2018-12-09T17:51:34.927Z,8.49
2018-12-09T17:57:29.868Z,9.03
2018-12-09T18:03:24.872Z,8.68
2018-12-09T18:09:19.869Z,8.96
2018-12-09T18:15:14.899Z,9.87
2018-12-09T18:21:09.886Z,8.94
2018-12-09T18:27:04.889Z,8.72
2018-12-09T18:32:59.906Z,10.98
2018-12-09T18:38:54.887Z,14.12
2018-12-09T18:44:49.940Z,11.62
2018-12-09T18:50:44.898Z,14.43
2018-12-09T18:56:39.895Z,12.49
2018-12-09T19:02:34.901Z,13.15
2018-12-09T19:08:29.907Z,14.7
2018-12-09T19:14:24.907Z,14.11
2018-12-09T19:20:19.916Z,15.38
2018-12-09T19:26:16.711Z,13.7
2018-12-09T19:32:09.924Z,12.33
2018-12-09T19:38:04.927Z,10.66
2018-12-09T19:43:59.921Z,13.13
2018-12-09T19:49:54.929Z,12.45
2018-12-09T19:55:49.934Z,11.29
2018-12-09T20:01:44.956Z,10.63
2018-12-09T20:07:39.984Z,11.57
2018-12-09T20:13:34.935Z,13.64
2018-12-09T20:19:29.958Z,12.34
2018-12-09T20:25:24.938Z,13.53
2018-12-09T20:31:19.946Z,12.25
2018-12-09T20:37:14.945Z,13.14
2018-12-09T20:43:09.957Z,11.44
2018-12-09T20:49:04.959Z,11.22
2018-12-09T20:54:59.961Z,12.31
2018-12-09T21:00:54.982Z,10.48
2018-12-09T21:06:49.984Z,8.81
2018-12-09T21:12:44.972Z,12.9
2018-12-09T21:18:39.976Z,15.26
2018-12-09T21:24:34.979Z,14.01
2018-12-09T21:30:29.986Z,13.38
2018-12-09T21:36:25.028Z,12.93
2018-12-09T21:42:20.008Z,14.93
2018-12-09T21:48:15.073Z,14.83
2018-12-09T21:54:10.025Z,16.37
2018-12-09T22:00:05.074Z,14.22
2018-12-09T22:06:00.047Z,12.86
2018-12-09T22:11:55.011Z,12.42
2018-12-09T22:17:50.013Z,11.92
2018-12-09T22:23:45.019Z,10.64
2018-12-09T22:29:40.016Z,12.5
2018-12-09T22:35:35.010Z,10.21
2018-12-09T22:41:30.081Z,10.25
2018-12-09T22:47:25.053Z,10.19
2018-12-09T22:53:20.038Z,9.78
2018-12-09T22:59:15.046Z,11.67
2018-12-09T23:05:10.033Z,10.8
2018-12-09T23:11:05.045Z,12.11
2018-12-09T23:17:00.043Z,10.92
2018-12-09T23:22:55.043Z,12.13
2018-12-09T23:28:50.058Z,10.8
2018-12-09T23:34:45.067Z,11.91
2018-12-09T23:40:40.045Z,14.15
2018-12-09T23:46:35.052Z,11.86
2018-12-09T23:52:30.071Z,11.61
2018-12-09T23:58:25.073Z,11.35
